Briefing drone pour Le puy-en-velay (LFHP)

Rechercher une autre localisation

Conditions de vol :


Nous sommes le : Vendredi 03 décembre 2021
Il est 22:33 UTC (23:33 LT)

Lever de soleil : 06:38 UTC (07:38 LT)
Coucher de soleil : 16:29 UTC (17:29 LT)

Météo

L'essentiel des conditions de vol

VIGILANCE MÉTÉO FRANCE - Haute-Loire (43)
Pas de vigilances particulieres
METAR de LFHP
LFHP 031900Z AUTO VRB04KT 9999 -RA NSC 02/M00 Q1014

Date d'émission: 03/12/2021
Heure d'émission: 19:00 UTC
Vent: Variable 4 KT (7 km/h)
Visibilité horizontale: > 10 km
Plafond : Pas de nuages significatifs (NSC)
Température: 2 °C
Point de rosée: 0 °C
Humidité: 87%
Pression (QNH): 1014 hPa
Conditions: Faible pluie
Prévision 24h pour Le puy-en-velay
Vent : 295° pour 5 KT (16 km/h)
Temperature Maxi: 3 °C
Temperature Min: 3 °C
Humidité : 88%
Condition : Légères chutes de neige



Warning: count(): Parameter must be an array or an object that implements Countable in /homepages/6/d509196549/htdocs/droneoxygene/briefing.php on line 743
WEBCAM POUR LE PUY-EN-VELAY

Réglementation

Voler en sécurité

CARTES AERONAUTIQUE 1/500.000
CARTES VAC (LFHP)
SUP AIP




Chargement des AIP...
NOTAM (LE PUY-EN-VELAY + Terrain à proximité / FIR )




Chargement des NOTAMS...
CONTACT PREFECTURE 43


Avertissement : Les données mises à disposition sont indicatives. Oxygène Drone ne pourra être tenu responsable de dégâts causés aux biens et aux personnes.